<?xml version="1.0" encoding="UTF-8" standalone="no" ?>
<gpx xmlns="http://www.topografix.com/GPX/1/1" xmlns:xsi="http://www.w3.org/2001/XMLSchema-instance" xsi:schemaLocation="http://www.topografix.com/GPX/1/1 http://www.topografix.com/GPX/1/1/gpx.xsd" version="1.1" creator="VisuGPX - https://www.visugpx.com">
  <metadata>
    <name>circuit cadet</name>
  </metadata>
  <trk>
    <name><![CDATA[circuit cadet_1]]></name>
    <trkseg>
      <trkpt lat="43.15333" lon="-0.63013">
        <ele>291.21936035156</ele>
        <time>2019-10-13T15:47:11Z</time>
      </trkpt>
      <trkpt lat="43.15332" lon="-0.63015">
        <ele>291.29724121094</ele>
        <time>2019-10-13T15:47:12Z</time>
      </trkpt>
      <trkpt lat="43.15332" lon="-0.63021">
        <ele>291.43756103516</ele>
        <time>2019-10-13T15:47:13Z</time>
      </trkpt>
      <trkpt lat="43.15331" lon="-0.63042">
        <ele>291.88415527344</ele>
        <time>2019-10-13T15:47:16Z</time>
      </trkpt>
      <trkpt lat="43.15331" lon="-0.63048">
        <ele>292.01333618164</ele>
        <time>2019-10-13T15:47:17Z</time>
      </trkpt>
      <trkpt lat="43.15331" lon="-0.63054">
        <ele>292.15795898438</ele>
        <time>2019-10-13T15:47:18Z</time>
      </trkpt>
      <trkpt lat="43.15329" lon="-0.63065">
        <ele>292.28842163086</ele>
        <time>2019-10-13T15:47:20Z</time>
      </trkpt>
      <trkpt lat="43.15326" lon="-0.63068">
        <ele>292.18356323242</ele>
        <time>2019-10-13T15:47:21Z</time>
      </trkpt>
      <trkpt lat="43.15318" lon="-0.63071">
        <ele>291.78173828125</ele>
        <time>2019-10-13T15:47:23Z</time>
      </trkpt>
      <trkpt lat="43.15314" lon="-0.63073">
        <ele>291.60122680664</ele>
        <time>2019-10-13T15:47:24Z</time>
      </trkpt>
      <trkpt lat="43.1531" lon="-0.63076">
        <ele>291.43627929688</ele>
        <time>2019-10-13T15:47:25Z</time>
      </trkpt>
      <trkpt lat="43.15307" lon="-0.63079">
        <ele>291.30422973633</ele>
        <time>2019-10-13T15:47:26Z</time>
      </trkpt>
      <trkpt lat="43.15277" lon="-0.6311">
        <ele>290.5478515625</ele>
        <time>2019-10-13T15:47:35Z</time>
      </trkpt>
      <trkpt lat="43.15267" lon="-0.63125">
        <ele>290.51473999023</ele>
        <time>2019-10-13T15:47:39Z</time>
      </trkpt>
      <trkpt lat="43.15263" lon="-0.63134">
        <ele>290.59484863281</ele>
        <time>2019-10-13T15:47:41Z</time>
      </trkpt>
      <trkpt lat="43.15256" lon="-0.63156">
        <ele>290.97271728516</ele>
        <time>2019-10-13T15:47:46Z</time>
      </trkpt>
      <trkpt lat="43.15252" lon="-0.63164">
        <ele>291.02749633789</ele>
        <time>2019-10-13T15:47:48Z</time>
      </trkpt>
      <trkpt lat="43.15249" lon="-0.63172">
        <ele>290.87158203125</ele>
        <time>2019-10-13T15:47:50Z</time>
      </trkpt>
      <trkpt lat="43.1524" lon="-0.63192">
        <ele>290.15774536133</ele>
        <time>2019-10-13T15:47:55Z</time>
      </trkpt>
      <trkpt lat="43.15227" lon="-0.63216">
        <ele>289.35815429688</ele>
        <time>2019-10-13T15:48:01Z</time>
      </trkpt>
      <trkpt lat="43.15211" lon="-0.63236">
        <ele>288.62628173828</ele>
        <time>2019-10-13T15:48:06Z</time>
      </trkpt>
      <trkpt lat="43.15211" lon="-0.6324">
        <ele>288.62261962891</ele>
        <time>2019-10-13T15:48:07Z</time>
      </trkpt>
      <trkpt lat="43.15218" lon="-0.63254">
        <ele>288.54791259766</ele>
        <time>2019-10-13T15:48:11Z</time>
      </trkpt>
      <trkpt lat="43.15221" lon="-0.63263">
        <ele>288.03573608398</ele>
        <time>2019-10-13T15:48:13Z</time>
      </trkpt>
      <trkpt lat="43.15225" lon="-0.63278">
        <ele>287.02233886719</ele>
        <time>2019-10-13T15:48:16Z</time>
      </trkpt>
      <trkpt lat="43.15227" lon="-0.63286">
        <ele>286.49102783203</ele>
        <time>2019-10-13T15:48:18Z</time>
      </trkpt>
      <trkpt lat="43.15228" lon="-0.6329">
        <ele>286.21545410156</ele>
        <time>2019-10-13T15:48:20Z</time>
      </trkpt>
      <trkpt lat="43.15228" lon="-0.63291">
        <ele>286.12741088867</ele>
        <time>2019-10-13T15:48:23Z</time>
      </trkpt>
      <trkpt lat="43.15229" lon="-0.63292">
        <ele>286.09194946289</ele>
        <time>2019-10-13T15:48:26Z</time>
      </trkpt>
      <trkpt lat="43.15228" lon="-0.63292">
        <ele>286.07092285156</ele>
        <time>2019-10-13T15:48:27Z</time>
      </trkpt>
      <trkpt lat="43.15228" lon="-0.63293">
        <ele>285.97052001953</ele>
        <time>2019-10-13T15:48:33Z</time>
      </trkpt>
      <trkpt lat="43.1523" lon="-0.63294">
        <ele>285.95761108398</ele>
        <time>2019-10-13T15:48:40Z</time>
      </trkpt>
      <trkpt lat="43.1523" lon="-0.63294">
        <ele>285.94384765625</ele>
        <time>2019-10-13T15:48:41Z</time>
      </trkpt>
      <trkpt lat="43.1523" lon="-0.63295">
        <ele>285.88452148438</ele>
        <time>2019-10-13T15:48:47Z</time>
      </trkpt>
      <trkpt lat="43.1523" lon="-0.63295">
        <ele>285.85797119141</ele>
        <time>2019-10-13T15:48:48Z</time>
      </trkpt>
      <trkpt lat="43.1523" lon="-0.63295">
        <ele>285.85797119141</ele>
        <time>2019-10-13T15:48:52Z</time>
      </trkpt>
      <trkpt lat="43.15231" lon="-0.63296">
        <ele>285.83807373047</ele>
        <time>2019-10-13T15:49:03Z</time>
      </trkpt>
      <trkpt lat="43.15233" lon="-0.633">
        <ele>285.57571411133</ele>
        <time>2019-10-13T15:49:06Z</time>
      </trkpt>
      <trkpt lat="43.15236" lon="-0.63305">
        <ele>285.20492553711</ele>
        <time>2019-10-13T15:49:08Z</time>
      </trkpt>
      <trkpt lat="43.15248" lon="-0.63325">
        <ele>283.70700073242</ele>
        <time>2019-10-13T15:49:12Z</time>
      </trkpt>
      <trkpt lat="43.15254" lon="-0.63334">
        <ele>283.21557617188</ele>
        <time>2019-10-13T15:49:14Z</time>
      </trkpt>
      <trkpt lat="43.15258" lon="-0.6334">
        <ele>283.19613647461</ele>
        <time>2019-10-13T15:49:16Z</time>
      </trkpt>
      <trkpt lat="43.1526" lon="-0.63344">
        <ele>283.16525268555</ele>
        <time>2019-10-13T15:49:18Z</time>
      </trkpt>
      <trkpt lat="43.15261" lon="-0.63345">
        <ele>283.1526184082</ele>
        <time>2019-10-13T15:49:20Z</time>
      </trkpt>
      <trkpt lat="43.1526" lon="-0.63345">
        <ele>283.09622192383</ele>
        <time>2019-10-13T15:49:24Z</time>
      </trkpt>
      <trkpt lat="43.1526" lon="-0.63345">
        <ele>283.09622192383</ele>
        <time>2019-10-13T15:49:30Z</time>
      </trkpt>
      <trkpt lat="43.1526" lon="-0.63345">
        <ele>283.09518432617</ele>
        <time>2019-10-13T15:49:32Z</time>
      </trkpt>
      <trkpt lat="43.1526" lon="-0.63345">
        <ele>283.09622192383</ele>
        <time>2019-10-13T15:49:41Z</time>
      </trkpt>
      <trkpt lat="43.1526" lon="-0.63345">
        <ele>283.09466552734</ele>
        <time>2019-10-13T15:49:44Z</time>
      </trkpt>
      <trkpt lat="43.15261" lon="-0.63345">
        <ele>283.11566162109</ele>
        <time>2019-10-13T15:49:45Z</time>
      </trkpt>
      <trkpt lat="43.15262" lon="-0.63349">
        <ele>283.052734375</ele>
        <time>2019-10-13T15:49:49Z</time>
      </trkpt>
      <trkpt lat="43.15263" lon="-0.6335">
        <ele>283.07598876953</ele>
        <time>2019-10-13T15:49:50Z</time>
      </trkpt>
      <trkpt lat="43.15263" lon="-0.63351">
        <ele>283.0426940918</ele>
        <time>2019-10-13T15:49:53Z</time>
      </trkpt>
      <trkpt lat="43.15263" lon="-0.63351">
        <ele>283.03793334961</ele>
        <time>2019-10-13T15:49:55Z</time>
      </trkpt>
      <trkpt lat="43.15263" lon="-0.63352">
        <ele>283.03439331055</ele>
        <time>2019-10-13T15:49:56Z</time>
      </trkpt>
      <trkpt lat="43.15263" lon="-0.63352">
        <ele>283.02960205078</ele>
        <time>2019-10-13T15:50:00Z</time>
      </trkpt>
      <trkpt lat="43.15263" lon="-0.63352">
        <ele>283.03012084961</ele>
        <time>2019-10-13T15:50:01Z</time>
      </trkpt>
      <trkpt lat="43.15263" lon="-0.63352">
        <ele>283.02935791016</ele>
        <time>2019-10-13T15:50:11Z</time>
      </trkpt>
      <trkpt lat="43.15263" lon="-0.63352">
        <ele>283.02230834961</ele>
        <time>2019-10-13T15:50:13Z</time>
      </trkpt>
      <trkpt lat="43.15263" lon="-0.63352">
        <ele>283.02407836914</ele>
        <time>2019-10-13T15:50:17Z</time>
      </trkpt>
      <trkpt lat="43.15263" lon="-0.63351">
        <ele>283.05578613281</ele>
        <time>2019-10-13T15:50:21Z</time>
      </trkpt>
      <trkpt lat="43.15267" lon="-0.63346">
        <ele>283.53607177734</ele>
        <time>2019-10-13T15:50:27Z</time>
      </trkpt>
      <trkpt lat="43.15274" lon="-0.63337">
        <ele>284.28424072266</ele>
        <time>2019-10-13T15:50:31Z</time>
      </trkpt>
      <trkpt lat="43.15277" lon="-0.63334">
        <ele>284.60437011719</ele>
        <time>2019-10-13T15:50:33Z</time>
      </trkpt>
      <trkpt lat="43.15285" lon="-0.63331">
        <ele>285.29254150391</ele>
        <time>2019-10-13T15:50:36Z</time>
      </trkpt>
      <trkpt lat="43.15291" lon="-0.6333">
        <ele>285.72241210938</ele>
        <time>2019-10-13T15:50:38Z</time>
      </trkpt>
      <trkpt lat="43.15302" lon="-0.63329">
        <ele>286.45468139648</ele>
        <time>2019-10-13T15:50:42Z</time>
      </trkpt>
      <trkpt lat="43.15306" lon="-0.63329">
        <ele>286.71081542969</ele>
        <time>2019-10-13T15:50:44Z</time>
      </trkpt>
      <trkpt lat="43.15311" lon="-0.63329">
        <ele>286.98248291016</ele>
        <time>2019-10-13T15:50:46Z</time>
      </trkpt>
      <trkpt lat="43.15318" lon="-0.63327">
        <ele>287.53912353516</ele>
        <time>2019-10-13T15:50:49Z</time>
      </trkpt>
      <trkpt lat="43.15321" lon="-0.63327">
        <ele>287.75466918945</ele>
        <time>2019-10-13T15:50:50Z</time>
      </trkpt>
      <trkpt lat="43.15331" lon="-0.63325">
        <ele>288.46524047852</ele>
        <time>2019-10-13T15:50:53Z</time>
      </trkpt>
      <trkpt lat="43.15339" lon="-0.63322">
        <ele>289.20327758789</ele>
        <time>2019-10-13T15:50:56Z</time>
      </trkpt>
      <trkpt lat="43.15355" lon="-0.63317">
        <ele>290.59851074219</ele>
        <time>2019-10-13T15:51:01Z</time>
      </trkpt>
      <trkpt lat="43.15358" lon="-0.63316">
        <ele>290.84820556641</ele>
        <time>2019-10-13T15:51:02Z</time>
      </trkpt>
      <trkpt lat="43.15365" lon="-0.63314">
        <ele>291.37335205078</ele>
        <time>2019-10-13T15:51:04Z</time>
      </trkpt>
      <trkpt lat="43.15375" lon="-0.63313">
        <ele>292.1233215332</ele>
        <time>2019-10-13T15:51:07Z</time>
      </trkpt>
      <trkpt lat="43.15378" lon="-0.63311">
        <ele>292.38836669922</ele>
        <time>2019-10-13T15:51:08Z</time>
      </trkpt>
      <trkpt lat="43.15382" lon="-0.63304">
        <ele>292.9521484375</ele>
        <time>2019-10-13T15:51:10Z</time>
      </trkpt>
      <trkpt lat="43.15382" lon="-0.63301">
        <ele>293.17868041992</ele>
        <time>2019-10-13T15:51:11Z</time>
      </trkpt>
      <trkpt lat="43.15386" lon="-0.63289">
        <ele>293.99124145508</ele>
        <time>2019-10-13T15:51:14Z</time>
      </trkpt>
      <trkpt lat="43.15388" lon="-0.63281">
        <ele>294.48031616211</ele>
        <time>2019-10-13T15:51:16Z</time>
      </trkpt>
      <trkpt lat="43.15389" lon="-0.63277">
        <ele>294.72015380859</ele>
        <time>2019-10-13T15:51:17Z</time>
      </trkpt>
      <trkpt lat="43.15393" lon="-0.63268">
        <ele>295.32550048828</ele>
        <time>2019-10-13T15:51:20Z</time>
      </trkpt>
      <trkpt lat="43.15394" lon="-0.63264">
        <ele>295.52914428711</ele>
        <time>2019-10-13T15:51:21Z</time>
      </trkpt>
      <trkpt lat="43.15397" lon="-0.63254">
        <ele>296.13137817383</ele>
        <time>2019-10-13T15:51:24Z</time>
      </trkpt>
      <trkpt lat="43.15398" lon="-0.63247">
        <ele>296.49255371094</ele>
        <time>2019-10-13T15:51:26Z</time>
      </trkpt>
      <trkpt lat="43.15398" lon="-0.63244">
        <ele>296.72344970703</ele>
        <time>2019-10-13T15:51:27Z</time>
      </trkpt>
      <trkpt lat="43.15398" lon="-0.63229">
        <ele>297.58648681641</ele>
        <time>2019-10-13T15:51:31Z</time>
      </trkpt>
      <trkpt lat="43.15396" lon="-0.63226">
        <ele>297.71331787109</ele>
        <time>2019-10-13T15:51:32Z</time>
      </trkpt>
      <trkpt lat="43.15391" lon="-0.63215">
        <ele>298.0598449707</ele>
        <time>2019-10-13T15:51:36Z</time>
      </trkpt>
      <trkpt lat="43.15388" lon="-0.6321">
        <ele>298.23840332031</ele>
        <time>2019-10-13T15:51:38Z</time>
      </trkpt>
      <trkpt lat="43.15386" lon="-0.63198">
        <ele>298.74047851562</ele>
        <time>2019-10-13T15:51:41Z</time>
      </trkpt>
      <trkpt lat="43.15386" lon="-0.63193">
        <ele>298.96484375</ele>
        <time>2019-10-13T15:51:42Z</time>
      </trkpt>
      <trkpt lat="43.15387" lon="-0.6318">
        <ele>299.78512573242</ele>
        <time>2019-10-13T15:51:45Z</time>
      </trkpt>
      <trkpt lat="43.15391" lon="-0.63168">
        <ele>300.77746582031</ele>
        <time>2019-10-13T15:51:48Z</time>
      </trkpt>
      <trkpt lat="43.15393" lon="-0.63165">
        <ele>301.04141235352</ele>
        <time>2019-10-13T15:51:49Z</time>
      </trkpt>
      <trkpt lat="43.15397" lon="-0.6316">
        <ele>301.50180053711</ele>
        <time>2019-10-13T15:51:51Z</time>
      </trkpt>
      <trkpt lat="43.15399" lon="-0.63157">
        <ele>301.70257568359</ele>
        <time>2019-10-13T15:51:52Z</time>
      </trkpt>
      <trkpt lat="43.15406" lon="-0.6314">
        <ele>302.7734375</ele>
        <time>2019-10-13T15:51:57Z</time>
      </trkpt>
      <trkpt lat="43.15411" lon="-0.63134">
        <ele>303.5944519043</ele>
        <time>2019-10-13T15:52:00Z</time>
      </trkpt>
      <trkpt lat="43.15412" lon="-0.63131">
        <ele>303.77328491211</ele>
        <time>2019-10-13T15:52:01Z</time>
      </trkpt>
      <trkpt lat="43.15409" lon="-0.63125">
        <ele>303.58700561523</ele>
        <time>2019-10-13T15:52:04Z</time>
      </trkpt>
      <trkpt lat="43.154" lon="-0.63127">
        <ele>302.40881347656</ele>
        <time>2019-10-13T15:52:08Z</time>
      </trkpt>
      <trkpt lat="43.15397" lon="-0.63128">
        <ele>302.11676025391</ele>
        <time>2019-10-13T15:52:09Z</time>
      </trkpt>
      <trkpt lat="43.15393" lon="-0.63128">
        <ele>301.6178894043</ele>
        <time>2019-10-13T15:52:13Z</time>
      </trkpt>
      <trkpt lat="43.15393" lon="-0.63128">
        <ele>301.62316894531</ele>
        <time>2019-10-13T15:52:17Z</time>
      </trkpt>
      <trkpt lat="43.15393" lon="-0.63128">
        <ele>301.62316894531</ele>
        <time>2019-10-13T15:52:20Z</time>
      </trkpt>
      <trkpt lat="43.15393" lon="-0.63128">
        <ele>301.62139892578</ele>
        <time>2019-10-13T15:52:22Z</time>
      </trkpt>
      <trkpt lat="43.15393" lon="-0.63128">
        <ele>301.62161254883</ele>
        <time>2019-10-13T15:52:24Z</time>
      </trkpt>
      <trkpt lat="43.15393" lon="-0.63128">
        <ele>301.62188720703</ele>
        <time>2019-10-13T15:52:26Z</time>
      </trkpt>
      <trkpt lat="43.15393" lon="-0.63128">
        <ele>301.62188720703</ele>
        <time>2019-10-13T15:52:28Z</time>
      </trkpt>
      <trkpt lat="43.15393" lon="-0.63128">
        <ele>301.62149047852</ele>
        <time>2019-10-13T15:52:30Z</time>
      </trkpt>
      <trkpt lat="43.15393" lon="-0.63128">
        <ele>301.62420654297</ele>
        <time>2019-10-13T15:52:35Z</time>
      </trkpt>
      <trkpt lat="43.1539" lon="-0.63127">
        <ele>301.27627563477</ele>
        <time>2019-10-13T15:52:38Z</time>
      </trkpt>
      <trkpt lat="43.15385" lon="-0.63116">
        <ele>300.8369140625</ele>
        <time>2019-10-13T15:52:42Z</time>
      </trkpt>
      <trkpt lat="43.15385" lon="-0.63111">
        <ele>300.82565307617</ele>
        <time>2019-10-13T15:52:43Z</time>
      </trkpt>
      <trkpt lat="43.15387" lon="-0.63107">
        <ele>301.12188720703</ele>
        <time>2019-10-13T15:52:44Z</time>
      </trkpt>
      <trkpt lat="43.1539" lon="-0.63104">
        <ele>301.57327270508</ele>
        <time>2019-10-13T15:52:45Z</time>
      </trkpt>
      <trkpt lat="43.15393" lon="-0.63102">
        <ele>302.03442382812</ele>
        <time>2019-10-13T15:52:46Z</time>
      </trkpt>
      <trkpt lat="43.15395" lon="-0.63098">
        <ele>302.35650634766</ele>
        <time>2019-10-13T15:52:47Z</time>
      </trkpt>
      <trkpt lat="43.15396" lon="-0.63093">
        <ele>302.68011474609</ele>
        <time>2019-10-13T15:52:49Z</time>
      </trkpt>
      <trkpt lat="43.15401" lon="-0.63087">
        <ele>303.42346191406</ele>
        <time>2019-10-13T15:52:52Z</time>
      </trkpt>
      <trkpt lat="43.15402" lon="-0.63083">
        <ele>303.6982421875</ele>
        <time>2019-10-13T15:52:53Z</time>
      </trkpt>
      <trkpt lat="43.15404" lon="-0.63068">
        <ele>302.65869140625</ele>
        <time>2019-10-13T15:52:56Z</time>
      </trkpt>
      <trkpt lat="43.15408" lon="-0.63058">
        <ele>302.43243408203</ele>
        <time>2019-10-13T15:52:58Z</time>
      </trkpt>
      <trkpt lat="43.15416" lon="-0.63045">
        <ele>302.17324829102</ele>
        <time>2019-10-13T15:53:02Z</time>
      </trkpt>
      <trkpt lat="43.15426" lon="-0.63029">
        <ele>301.10665893555</ele>
        <time>2019-10-13T15:53:06Z</time>
      </trkpt>
      <trkpt lat="43.1543" lon="-0.63016">
        <ele>299.83117675781</ele>
        <time>2019-10-13T15:53:10Z</time>
      </trkpt>
      <trkpt lat="43.15436" lon="-0.63003">
        <ele>298.55068969727</ele>
        <time>2019-10-13T15:53:13Z</time>
      </trkpt>
      <trkpt lat="43.15438" lon="-0.62998">
        <ele>298.06979370117</ele>
        <time>2019-10-13T15:53:14Z</time>
      </trkpt>
      <trkpt lat="43.15439" lon="-0.62994">
        <ele>297.68786621094</ele>
        <time>2019-10-13T15:53:15Z</time>
      </trkpt>
      <trkpt lat="43.1544" lon="-0.62989">
        <ele>297.25424194336</ele>
        <time>2019-10-13T15:53:16Z</time>
      </trkpt>
      <trkpt lat="43.15437" lon="-0.62982">
        <ele>296.60614013672</ele>
        <time>2019-10-13T15:53:17Z</time>
      </trkpt>
      <trkpt lat="43.15435" lon="-0.62977">
        <ele>296.06134033203</ele>
        <time>2019-10-13T15:53:18Z</time>
      </trkpt>
      <trkpt lat="43.1543" lon="-0.62967">
        <ele>295.18908691406</ele>
        <time>2019-10-13T15:53:20Z</time>
      </trkpt>
      <trkpt lat="43.15429" lon="-0.62962">
        <ele>294.7395324707</ele>
        <time>2019-10-13T15:53:21Z</time>
      </trkpt>
      <trkpt lat="43.15428" lon="-0.62957">
        <ele>294.30133056641</ele>
        <time>2019-10-13T15:53:22Z</time>
      </trkpt>
      <trkpt lat="43.15427" lon="-0.62948">
        <ele>293.53479003906</ele>
        <time>2019-10-13T15:53:24Z</time>
      </trkpt>
      <trkpt lat="43.15424" lon="-0.62933">
        <ele>292.24423217773</ele>
        <time>2019-10-13T15:53:27Z</time>
      </trkpt>
      <trkpt lat="43.15417" lon="-0.62913">
        <ele>290.77258300781</ele>
        <time>2019-10-13T15:53:30Z</time>
      </trkpt>
      <trkpt lat="43.15417" lon="-0.62907">
        <ele>290.435546875</ele>
        <time>2019-10-13T15:53:31Z</time>
      </trkpt>
      <trkpt lat="43.15417" lon="-0.62896">
        <ele>289.75006103516</ele>
        <time>2019-10-13T15:53:33Z</time>
      </trkpt>
      <trkpt lat="43.15419" lon="-0.6289">
        <ele>289.35018920898</ele>
        <time>2019-10-13T15:53:34Z</time>
      </trkpt>
      <trkpt lat="43.15419" lon="-0.62878">
        <ele>288.56414794922</ele>
        <time>2019-10-13T15:53:36Z</time>
      </trkpt>
      <trkpt lat="43.15416" lon="-0.62869">
        <ele>288.08276367188</ele>
        <time>2019-10-13T15:53:38Z</time>
      </trkpt>
      <trkpt lat="43.15415" lon="-0.62865">
        <ele>287.84725952148</ele>
        <time>2019-10-13T15:53:39Z</time>
      </trkpt>
      <trkpt lat="43.15415" lon="-0.62861">
        <ele>287.60479736328</ele>
        <time>2019-10-13T15:53:40Z</time>
      </trkpt>
      <trkpt lat="43.15415" lon="-0.62849">
        <ele>286.87054443359</ele>
        <time>2019-10-13T15:53:43Z</time>
      </trkpt>
      <trkpt lat="43.15417" lon="-0.62846">
        <ele>286.73229980469</ele>
        <time>2019-10-13T15:53:44Z</time>
      </trkpt>
      <trkpt lat="43.15418" lon="-0.62841">
        <ele>286.39761352539</ele>
        <time>2019-10-13T15:53:45Z</time>
      </trkpt>
      <trkpt lat="43.15427" lon="-0.62823">
        <ele>284.99340820312</ele>
        <time>2019-10-13T15:53:49Z</time>
      </trkpt>
      <trkpt lat="43.1543" lon="-0.62819">
        <ele>284.64154052734</ele>
        <time>2019-10-13T15:53:50Z</time>
      </trkpt>
      <trkpt lat="43.15435" lon="-0.6281">
        <ele>283.94348144531</ele>
        <time>2019-10-13T15:53:52Z</time>
      </trkpt>
      <trkpt lat="43.15438" lon="-0.62805">
        <ele>283.54534912109</ele>
        <time>2019-10-13T15:53:53Z</time>
      </trkpt>
      <trkpt lat="43.1544" lon="-0.628">
        <ele>283.15539550781</ele>
        <time>2019-10-13T15:53:54Z</time>
      </trkpt>
      <trkpt lat="43.15444" lon="-0.62789">
        <ele>282.40985107422</ele>
        <time>2019-10-13T15:53:56Z</time>
      </trkpt>
      <trkpt lat="43.15446" lon="-0.62785">
        <ele>282.06481933594</ele>
        <time>2019-10-13T15:53:57Z</time>
      </trkpt>
      <trkpt lat="43.15448" lon="-0.6278">
        <ele>281.68011474609</ele>
        <time>2019-10-13T15:53:58Z</time>
      </trkpt>
      <trkpt lat="43.15454" lon="-0.62767">
        <ele>280.65036010742</ele>
        <time>2019-10-13T15:54:01Z</time>
      </trkpt>
      <trkpt lat="43.15455" lon="-0.6275">
        <ele>279.69424438477</ele>
        <time>2019-10-13T15:54:04Z</time>
      </trkpt>
      <trkpt lat="43.15456" lon="-0.62742">
        <ele>279.11389160156</ele>
        <time>2019-10-13T15:54:07Z</time>
      </trkpt>
      <trkpt lat="43.15455" lon="-0.62739">
        <ele>278.95294189453</ele>
        <time>2019-10-13T15:54:08Z</time>
      </trkpt>
      <trkpt lat="43.15455" lon="-0.62725">
        <ele>278.04760742188</ele>
        <time>2019-10-13T15:54:11Z</time>
      </trkpt>
      <trkpt lat="43.15455" lon="-0.62721">
        <ele>277.7936706543</ele>
        <time>2019-10-13T15:54:12Z</time>
      </trkpt>
      <trkpt lat="43.15454" lon="-0.62703">
        <ele>276.66354370117</ele>
        <time>2019-10-13T15:54:16Z</time>
      </trkpt>
      <trkpt lat="43.15458" lon="-0.62697">
        <ele>276.0285949707</ele>
        <time>2019-10-13T15:54:18Z</time>
      </trkpt>
      <trkpt lat="43.1546" lon="-0.62694">
        <ele>275.70413208008</ele>
        <time>2019-10-13T15:54:19Z</time>
      </trkpt>
      <trkpt lat="43.15462" lon="-0.62685">
        <ele>274.97402954102</ele>
        <time>2019-10-13T15:54:21Z</time>
      </trkpt>
      <trkpt lat="43.15463" lon="-0.62675">
        <ele>274.32336425781</ele>
        <time>2019-10-13T15:54:23Z</time>
      </trkpt>
      <trkpt lat="43.15464" lon="-0.6267">
        <ele>273.95611572266</ele>
        <time>2019-10-13T15:54:24Z</time>
      </trkpt>
      <trkpt lat="43.15464" lon="-0.62665">
        <ele>273.69842529297</ele>
        <time>2019-10-13T15:54:25Z</time>
      </trkpt>
      <trkpt lat="43.15466" lon="-0.62661">
        <ele>273.59414672852</ele>
        <time>2019-10-13T15:54:26Z</time>
      </trkpt>
      <trkpt lat="43.15468" lon="-0.62647">
        <ele>273.37698364258</ele>
        <time>2019-10-13T15:54:29Z</time>
      </trkpt>
      <trkpt lat="43.15469" lon="-0.62629">
        <ele>273.22305297852</ele>
        <time>2019-10-13T15:54:33Z</time>
      </trkpt>
      <trkpt lat="43.15468" lon="-0.62624">
        <ele>273.22640991211</ele>
        <time>2019-10-13T15:54:34Z</time>
      </trkpt>
      <trkpt lat="43.15467" lon="-0.62617">
        <ele>273.20037841797</ele>
        <time>2019-10-13T15:54:35Z</time>
      </trkpt>
      <trkpt lat="43.15468" lon="-0.62606">
        <ele>273.09478759766</ele>
        <time>2019-10-13T15:54:37Z</time>
      </trkpt>
      <trkpt lat="43.1547" lon="-0.62594">
        <ele>272.89392089844</ele>
        <time>2019-10-13T15:54:40Z</time>
      </trkpt>
      <trkpt lat="43.15472" lon="-0.62591">
        <ele>272.72015380859</ele>
        <time>2019-10-13T15:54:41Z</time>
      </trkpt>
      <trkpt lat="43.15481" lon="-0.62582">
        <ele>272.14694213867</ele>
        <time>2019-10-13T15:54:44Z</time>
      </trkpt>
      <trkpt lat="43.15483" lon="-0.6258">
        <ele>271.98345947266</ele>
        <time>2019-10-13T15:54:45Z</time>
      </trkpt>
      <trkpt lat="43.1549" lon="-0.62575">
        <ele>271.62997436523</ele>
        <time>2019-10-13T15:54:48Z</time>
      </trkpt>
      <trkpt lat="43.15493" lon="-0.62572">
        <ele>271.50735473633</ele>
        <time>2019-10-13T15:54:49Z</time>
      </trkpt>
      <trkpt lat="43.15494" lon="-0.62563">
        <ele>271.4928894043</ele>
        <time>2019-10-13T15:54:51Z</time>
      </trkpt>
      <trkpt lat="43.15495" lon="-0.62545">
        <ele>271.58316040039</ele>
        <time>2019-10-13T15:54:55Z</time>
      </trkpt>
      <trkpt lat="43.15493" lon="-0.6253">
        <ele>271.72988891602</ele>
        <time>2019-10-13T15:54:58Z</time>
      </trkpt>
      <trkpt lat="43.15491" lon="-0.62526">
        <ele>271.779296875</ele>
        <time>2019-10-13T15:54:59Z</time>
      </trkpt>
      <trkpt lat="43.15491" lon="-0.62507">
        <ele>271.86264038086</ele>
        <time>2019-10-13T15:55:02Z</time>
      </trkpt>
      <trkpt lat="43.15495" lon="-0.62493">
        <ele>271.76342773438</ele>
        <time>2019-10-13T15:55:05Z</time>
      </trkpt>
      <trkpt lat="43.15495" lon="-0.62489">
        <ele>271.66223144531</ele>
        <time>2019-10-13T15:55:06Z</time>
      </trkpt>
      <trkpt lat="43.15497" lon="-0.62476">
        <ele>271.36032104492</ele>
        <time>2019-10-13T15:55:09Z</time>
      </trkpt>
      <trkpt lat="43.15497" lon="-0.62472">
        <ele>271.27975463867</ele>
        <time>2019-10-13T15:55:10Z</time>
      </trkpt>
      <trkpt lat="43.15492" lon="-0.62467">
        <ele>271.03616333008</ele>
        <time>2019-10-13T15:55:13Z</time>
      </trkpt>
      <trkpt lat="43.15483" lon="-0.62464">
        <ele>270.75347900391</ele>
        <time>2019-10-13T15:55:17Z</time>
      </trkpt>
      <trkpt lat="43.15467" lon="-0.62462">
        <ele>270.32260131836</ele>
        <time>2019-10-13T15:55:24Z</time>
      </trkpt>
      <trkpt lat="43.15462" lon="-0.62462">
        <ele>270.23977661133</ele>
        <time>2019-10-13T15:55:26Z</time>
      </trkpt>
      <trkpt lat="43.15458" lon="-0.62465">
        <ele>270.25704956055</ele>
        <time>2019-10-13T15:55:29Z</time>
      </trkpt>
      <trkpt lat="43.15457" lon="-0.62467">
        <ele>270.27090454102</ele>
        <time>2019-10-13T15:55:30Z</time>
      </trkpt>
      <trkpt lat="43.15456" lon="-0.62467">
        <ele>270.27172851562</ele>
        <time>2019-10-13T15:55:31Z</time>
      </trkpt>
      <trkpt lat="43.15454" lon="-0.62469">
        <ele>270.30252075195</ele>
        <time>2019-10-13T15:55:33Z</time>
      </trkpt>
      <trkpt lat="43.15453" lon="-0.62471">
        <ele>270.34594726562</ele>
        <time>2019-10-13T15:55:34Z</time>
      </trkpt>
      <trkpt lat="43.15453" lon="-0.62475">
        <ele>270.48519897461</ele>
        <time>2019-10-13T15:55:36Z</time>
      </trkpt>
      <trkpt lat="43.15454" lon="-0.62477">
        <ele>270.58871459961</ele>
        <time>2019-10-13T15:55:37Z</time>
      </trkpt>
      <trkpt lat="43.15456" lon="-0.6248">
        <ele>270.72897338867</ele>
        <time>2019-10-13T15:55:38Z</time>
      </trkpt>
      <trkpt lat="43.15459" lon="-0.62485">
        <ele>270.95422363281</ele>
        <time>2019-10-13T15:55:40Z</time>
      </trkpt>
      <trkpt lat="43.15458" lon="-0.62486">
        <ele>270.98983764648</ele>
        <time>2019-10-13T15:55:41Z</time>
      </trkpt>
      <trkpt lat="43.15456" lon="-0.62487">
        <ele>270.99301147461</ele>
        <time>2019-10-13T15:55:42Z</time>
      </trkpt>
      <trkpt lat="43.15453" lon="-0.62489">
        <ele>271.03259277344</ele>
        <time>2019-10-13T15:55:44Z</time>
      </trkpt>
      <trkpt lat="43.15452" lon="-0.62492">
        <ele>271.1142578125</ele>
        <time>2019-10-13T15:55:46Z</time>
      </trkpt>
      <trkpt lat="43.15451" lon="-0.62494">
        <ele>271.17987060547</ele>
        <time>2019-10-13T15:55:47Z</time>
      </trkpt>
      <trkpt lat="43.15451" lon="-0.62495">
        <ele>271.232421875</ele>
        <time>2019-10-13T15:55:48Z</time>
      </trkpt>
      <trkpt lat="43.15446" lon="-0.625">
        <ele>271.35787963867</ele>
        <time>2019-10-13T15:55:51Z</time>
      </trkpt>
      <trkpt lat="43.15445" lon="-0.62502">
        <ele>271.40316772461</ele>
        <time>2019-10-13T15:55:52Z</time>
      </trkpt>
      <trkpt lat="43.15443" lon="-0.62504">
        <ele>271.46420288086</ele>
        <time>2019-10-13T15:55:54Z</time>
      </trkpt>
      <trkpt lat="43.15439" lon="-0.62505">
        <ele>271.48028564453</ele>
        <time>2019-10-13T15:55:56Z</time>
      </trkpt>
      <trkpt lat="43.15437" lon="-0.62505">
        <ele>271.44906616211</ele>
        <time>2019-10-13T15:55:57Z</time>
      </trkpt>
      <trkpt lat="43.15431" lon="-0.62507">
        <ele>271.48895263672</ele>
        <time>2019-10-13T15:56:01Z</time>
      </trkpt>
      <trkpt lat="43.15431" lon="-0.62518">
        <ele>272.0153503418</ele>
        <time>2019-10-13T15:56:05Z</time>
      </trkpt>
      <trkpt lat="43.15432" lon="-0.62521">
        <ele>272.1735534668</ele>
        <time>2019-10-13T15:56:06Z</time>
      </trkpt>
      <trkpt lat="43.15436" lon="-0.62545">
        <ele>273.17086791992</ele>
        <time>2019-10-13T15:56:13Z</time>
      </trkpt>
      <trkpt lat="43.1544" lon="-0.62553">
        <ele>273.41204833984</ele>
        <time>2019-10-13T15:56:16Z</time>
      </trkpt>
      <trkpt lat="43.1544" lon="-0.62556">
        <ele>273.52725219727</ele>
        <time>2019-10-13T15:56:17Z</time>
      </trkpt>
      <trkpt lat="43.1544" lon="-0.62565">
        <ele>273.88290405273</ele>
        <time>2019-10-13T15:56:20Z</time>
      </trkpt>
      <trkpt lat="43.1544" lon="-0.62571">
        <ele>274.11114501953</ele>
        <time>2019-10-13T15:56:22Z</time>
      </trkpt>
      <trkpt lat="43.15439" lon="-0.62573">
        <ele>274.23388671875</ele>
        <time>2019-10-13T15:56:23Z</time>
      </trkpt>
      <trkpt lat="43.15438" lon="-0.6258">
        <ele>274.58657836914</ele>
        <time>2019-10-13T15:56:26Z</time>
      </trkpt>
      <trkpt lat="43.15437" lon="-0.62585">
        <ele>274.81243896484</ele>
        <time>2019-10-13T15:56:28Z</time>
      </trkpt>
      <trkpt lat="43.15434" lon="-0.62595">
        <ele>274.974609375</ele>
        <time>2019-10-13T15:56:32Z</time>
      </trkpt>
      <trkpt lat="43.15433" lon="-0.626">
        <ele>275.07415771484</ele>
        <time>2019-10-13T15:56:34Z</time>
      </trkpt>
      <trkpt lat="43.15431" lon="-0.62614">
        <ele>275.21179199219</ele>
        <time>2019-10-13T15:56:39Z</time>
      </trkpt>
      <trkpt lat="43.15429" lon="-0.62622">
        <ele>275.33190917969</ele>
        <time>2019-10-13T15:56:42Z</time>
      </trkpt>
      <trkpt lat="43.15426" lon="-0.62629">
        <ele>275.4875793457</ele>
        <time>2019-10-13T15:56:45Z</time>
      </trkpt>
      <trkpt lat="43.15422" lon="-0.62637">
        <ele>275.69860839844</ele>
        <time>2019-10-13T15:56:49Z</time>
      </trkpt>
      <trkpt lat="43.1542" lon="-0.62642">
        <ele>275.83984375</ele>
        <time>2019-10-13T15:56:51Z</time>
      </trkpt>
      <trkpt lat="43.15414" lon="-0.62652">
        <ele>275.98062133789</ele>
        <time>2019-10-13T15:56:56Z</time>
      </trkpt>
      <trkpt lat="43.15405" lon="-0.62668">
        <ele>276.07357788086</ele>
        <time>2019-10-13T15:57:03Z</time>
      </trkpt>
      <trkpt lat="43.15403" lon="-0.6267">
        <ele>276.24185180664</ele>
        <time>2019-10-13T15:57:04Z</time>
      </trkpt>
      <trkpt lat="43.15388" lon="-0.62689">
        <ele>277.36505126953</ele>
        <time>2019-10-13T15:57:12Z</time>
      </trkpt>
      <trkpt lat="43.15386" lon="-0.62694">
        <ele>277.58422851562</ele>
        <time>2019-10-13T15:57:14Z</time>
      </trkpt>
      <trkpt lat="43.15376" lon="-0.62707">
        <ele>278.20639038086</ele>
        <time>2019-10-13T15:57:21Z</time>
      </trkpt>
      <trkpt lat="43.1537" lon="-0.62714">
        <ele>278.46588134766</ele>
        <time>2019-10-13T15:57:25Z</time>
      </trkpt>
      <trkpt lat="43.15366" lon="-0.6272">
        <ele>278.6833190918</ele>
        <time>2019-10-13T15:57:28Z</time>
      </trkpt>
      <trkpt lat="43.15363" lon="-0.62727">
        <ele>278.94818115234</ele>
        <time>2019-10-13T15:57:31Z</time>
      </trkpt>
      <trkpt lat="43.15359" lon="-0.62737">
        <ele>279.29232788086</ele>
        <time>2019-10-13T15:57:35Z</time>
      </trkpt>
      <trkpt lat="43.15357" lon="-0.62742">
        <ele>279.46752929688</ele>
        <time>2019-10-13T15:57:37Z</time>
      </trkpt>
      <trkpt lat="43.15348" lon="-0.62759">
        <ele>279.97048950195</ele>
        <time>2019-10-13T15:57:44Z</time>
      </trkpt>
      <trkpt lat="43.15345" lon="-0.62766">
        <ele>280.16445922852</ele>
        <time>2019-10-13T15:57:46Z</time>
      </trkpt>
      <trkpt lat="43.15342" lon="-0.62783">
        <ele>280.88458251953</ele>
        <time>2019-10-13T15:57:51Z</time>
      </trkpt>
      <trkpt lat="43.15343" lon="-0.62816">
        <ele>282.51080322266</ele>
        <time>2019-10-13T15:58:00Z</time>
      </trkpt>
      <trkpt lat="43.15343" lon="-0.62849">
        <ele>284.60818481445</ele>
        <time>2019-10-13T15:58:07Z</time>
      </trkpt>
      <trkpt lat="43.15342" lon="-0.62868">
        <ele>286.15377807617</ele>
        <time>2019-10-13T15:58:12Z</time>
      </trkpt>
      <trkpt lat="43.15347" lon="-0.62878">
        <ele>287.06304931641</ele>
        <time>2019-10-13T15:58:17Z</time>
      </trkpt>
      <trkpt lat="43.15348" lon="-0.62884">
        <ele>287.55718994141</ele>
        <time>2019-10-13T15:58:20Z</time>
      </trkpt>
      <trkpt lat="43.1535" lon="-0.62887">
        <ele>287.88177490234</ele>
        <time>2019-10-13T15:58:22Z</time>
      </trkpt>
      <trkpt lat="43.15351" lon="-0.62889">
        <ele>288.03436279297</ele>
        <time>2019-10-13T15:58:23Z</time>
      </trkpt>
      <trkpt lat="43.15354" lon="-0.62896">
        <ele>288.62222290039</ele>
        <time>2019-10-13T15:58:27Z</time>
      </trkpt>
      <trkpt lat="43.15358" lon="-0.62899">
        <ele>288.92218017578</ele>
        <time>2019-10-13T15:58:30Z</time>
      </trkpt>
      <trkpt lat="43.15365" lon="-0.62904">
        <ele>289.46795654297</ele>
        <time>2019-10-13T15:58:35Z</time>
      </trkpt>
      <trkpt lat="43.15372" lon="-0.62909">
        <ele>289.90255737305</ele>
        <time>2019-10-13T15:58:38Z</time>
      </trkpt>
      <trkpt lat="43.15377" lon="-0.62916">
        <ele>290.44491577148</ele>
        <time>2019-10-13T15:58:41Z</time>
      </trkpt>
      <trkpt lat="43.15378" lon="-0.62921">
        <ele>290.77081298828</ele>
        <time>2019-10-13T15:58:43Z</time>
      </trkpt>
      <trkpt lat="43.15377" lon="-0.62928">
        <ele>291.08059692383</ele>
        <time>2019-10-13T15:58:45Z</time>
      </trkpt>
      <trkpt lat="43.15372" lon="-0.62952">
        <ele>292.09045410156</ele>
        <time>2019-10-13T15:58:52Z</time>
      </trkpt>
      <trkpt lat="43.15371" lon="-0.62955">
        <ele>292.16061401367</ele>
        <time>2019-10-13T15:58:53Z</time>
      </trkpt>
      <trkpt lat="43.15361" lon="-0.62966">
        <ele>292.09219360352</ele>
        <time>2019-10-13T15:58:57Z</time>
      </trkpt>
      <trkpt lat="43.15346" lon="-0.62979">
        <ele>291.56109619141</ele>
        <time>2019-10-13T15:59:02Z</time>
      </trkpt>
      <trkpt lat="43.15343" lon="-0.62983">
        <ele>291.45086669922</ele>
        <time>2019-10-13T15:59:03Z</time>
      </trkpt>
      <trkpt lat="43.15335" lon="-0.63005">
        <ele>291.3830871582</ele>
        <time>2019-10-13T15:59:06Z</time>
      </trkpt>
    </trkseg>
  </trk>
</gpx>